Time;durP1;ratioP1;P1;durP2;ratioP2;P2;SDS_P1;SDS_P2;PMS_P1;PMS_P2;Temp;Humidity;BMP_temperature;BMP_pressure;BME280_temperature;BME280_humidity;BME280_pressure;Samples;Min_cycle;Max_cycle;Signal;HPM_P1;HPM_P2
2021/08/24 00:02:02;;;;;;;;;;;17.50;99.90;;;;;;5052724;28;20010;-64
2021/08/24 00:04:27;;;;;;;;;;;17.50;99.90;;;;;;5051398;28;19905;-64
2021/08/24 00:06:53;;;;;;;;;;;17.40;99.90;;;;;;5052727;28;20368;-64
2021/08/24 00:09:19;;;;;;;;;;;17.40;99.90;;;;;;5051270;28;19940;-64
2021/08/24 00:11:44;;;;;;;;;;;17.40;99.90;;;;;;5052643;28;19905;-64
2021/08/24 00:14:10;;;;;;;;;;;17.30;99.90;;;;;;5053132;28;19912;-64
2021/08/24 00:16:36;;;;;;;;;;;17.30;99.90;;;;;;5052214;28;19947;-64
2021/08/24 00:19:02;;;;;;;;;;;17.20;99.90;;;;;;5051171;28;19956;-64
2021/08/24 00:21:27;;;;;;;;;;;17.20;99.90;;;;;;5052732;28;19955;-64
2021/08/24 00:23:53;;;;;;;;;;;17.10;99.90;;;;;;5052565;28;19904;-64
2021/08/24 00:26:18;;;;;;;;;;;17.10;99.90;;;;;;5052760;28;20364;-64
2021/08/24 00:28:44;;;;;;;;;;;17.10;99.90;;;;;;5052424;28;19913;-64
2021/08/24 00:31:09;;;;;;;;;;;17.00;99.90;;;;;;5052421;28;19959;-64
2021/08/24 00:33:35;;;;;;;;;;;17.00;99.90;;;;;;5052419;28;19905;-63
2021/08/24 00:36:01;;;;;;;;;;;17.00;99.90;;;;;;5052556;28;19956;-65
2021/08/24 00:38:26;;;;;;;;;;;17.00;99.90;;;;;;5055492;28;19905;-64
2021/08/24 00:40:53;;;;;;;;;;;17.00;99.90;;;;;;5056164;28;19947;-64
2021/08/24 00:43:19;;;;;;;;;;;17.00;99.90;;;;;;5055968;28;19909;-64
2021/08/24 00:45:47;;;;;;;;;;;17.00;99.90;;;;;;5056053;28;19915;-64
2021/08/24 00:48:12;;;;;;;;;;;17.00;99.90;;;;;;5055919;28;19908;-64
2021/08/24 00:50:41;;;;;;;;;;;17.00;99.90;;;;;;5056170;28;19978;-64
2021/08/24 00:53:09;;;;;;;;;;;17.00;99.90;;;;;;5054608;28;19905;-64
2021/08/24 00:55:35;;;;;;;;;;;17.00;99.90;;;;;;5054709;28;19909;-64
2021/08/24 00:58:02;;;;;;;;;;;16.90;99.90;;;;;;5055730;28;19962;-64
2021/08/24 01:00:28;;;;;;;;;;;16.90;99.90;;;;;;5054505;28;19987;-64
2021/08/24 01:02:56;;;;;;;;;;;16.80;99.90;;;;;;5056022;28;19915;-64
2021/08/24 01:05:22;;;;;;;;;;;16.80;99.90;;;;;;5057147;28;19904;-64
2021/08/24 01:07:54;;;;;;;;;;;16.80;99.90;;;;;;5061387;28;19905;-64
2021/08/24 01:10:22;;;;;;;;;;;16.80;99.90;;;;;;5055895;28;19904;-63
2021/08/24 01:13:07;;;;;;;;;;;16.70;99.90;;;;;;5054271;28;19995;-63
2021/08/24 01:15:32;;;;;;;;;;;16.70;99.90;;;;;;5054294;28;19908;-64
2021/08/24 01:18:07;;;;;;;;;;;16.70;99.90;;;;;;5055492;28;19919;-65
2021/08/24 01:20:51;;;;;;;;;;;16.70;99.90;;;;;;5055648;28;19947;-62
2021/08/24 01:23:23;;;;;;;;;;;16.70;99.90;;;;;;5055232;28;19915;-62
2021/08/24 01:25:51;;;;;;;;;;;16.60;99.90;;;;;;5055659;28;20039;-62
2021/08/24 01:28:22;;;;;;;;;;;16.60;99.90;;;;;;5055285;28;19948;-63
2021/08/24 01:30:48;;;;;;;;;;;16.60;99.90;;;;;;5053817;28;19905;-63
2021/08/24 01:33:33;;;;;;;;;;;16.50;99.90;;;;;;5055431;28;19904;-63
2021/08/24 01:36:07;;;;;;;;;;;16.50;99.90;;;;;;5055213;28;19909;-63
2021/08/24 01:38:36;;;;;;;;;;;16.40;99.90;;;;;;5053889;28;19948;-62
2021/08/24 01:41:08;;;;;;;;;;;16.40;99.90;;;;;;5055212;28;19904;-63
2021/08/24 01:43:40;;;;;;;;;;;16.40;99.90;;;;;;5055269;28;19916;-63
2021/08/24 01:46:12;;;;;;;;;;;16.30;99.90;;;;;;5055023;28;19920;-63
2021/08/24 01:48:39;;;;;;;;;;;16.30;99.90;;;;;;5054572;28;19927;-63
2021/08/24 01:51:13;;;;;;;;;;;16.30;99.90;;;;;;5055310;28;19911;-63
2021/08/24 01:53:41;;;;;;;;;;;16.30;99.90;;;;;;5053566;28;19905;-63
2021/08/24 01:56:13;;;;;;;;;;;16.20;99.90;;;;;;5055033;28;19905;-63
2021/08/24 01:58:43;;;;;;;;;;;16.20;99.90;;;;;;5054678;28;19905;-63
2021/08/24 02:01:10;;;;;;;;;;;16.20;99.90;;;;;;5055153;28;19940;-63
2021/08/24 02:03:37;;;;;;;;;;;16.20;99.90;;;;;;5054690;28;19909;-64
2021/08/24 02:06:09;;;;;;;;;;;16.10;99.90;;;;;;5054860;28;20428;-64
2021/08/24 02:08:36;;;;;;;;;;;16.10;99.90;;;;;;5054870;28;19912;-64
2021/08/24 02:11:03;;;;;;;;;;;16.10;99.90;;;;;;5054845;28;19905;-64
2021/08/24 02:13:32;;;;;;;;;;;16.00;99.90;;;;;;5054829;28;19912;-66
2021/08/24 02:15:58;;;;;;;;;;;16.00;99.90;;;;;;5054817;28;19952;-66
2021/08/24 02:18:26;;;;;;;;;;;16.00;99.90;;;;;;5054979;28;19924;-67
2021/08/24 02:20:55;;;;;;;;;;;15.90;99.90;;;;;;5054458;28;20349;-67
2021/08/24 02:23:23;;;;;;;;;;;15.90;99.90;;;;;;5054308;28;19957;-67
2021/08/24 02:25:50;;;;;;;;;;;15.90;99.90;;;;;;5054395;28;20249;-67
2021/08/24 02:28:21;;;;;;;;;;;15.80;99.90;;;;;;5054369;28;19959;-67
2021/08/24 02:30:49;;;;;;;;;;;15.80;99.90;;;;;;5054586;28;20285;-67
2021/08/24 02:33:15;;;;;;;;;;;15.80;99.90;;;;;;5054035;28;20017;-67
2021/08/24 02:36:00;;;;;;;;;;;15.80;99.90;;;;;;5052790;28;20330;-66
2021/08/24 02:38:27;;;;;;;;;;;15.80;99.90;;;;;;5053895;28;19905;-65
2021/08/24 02:40:56;;;;;;;;;;;15.70;99.90;;;;;;5054148;28;20000;-67
2021/08/24 02:43:25;;;;;;;;;;;15.70;99.90;;;;;;5052584;28;20407;-66
2021/08/24 02:45:59;;;;;;;;;;;15.60;99.90;;;;;;5054130;28;19909;-66
2021/08/24 02:48:25;;;;;;;;;;;15.60;99.90;;;;;;5053866;28;19904;-67
2021/08/24 02:50:51;;;;;;;;;;;15.60;99.90;;;;;;5054202;28;19909;-66
2021/08/24 02:53:16;;;;;;;;;;;15.50;99.90;;;;;;5053861;28;20258;-66
2021/08/24 02:55:42;;;;;;;;;;;15.50;99.90;;;;;;5053748;28;19912;-67
2021/08/24 02:58:07;;;;;;;;;;;15.40;99.90;;;;;;5053758;28;19932;-66
2021/08/24 03:00:33;;;;;;;;;;;15.40;99.90;;;;;;5051750;28;20424;-67
2021/08/24 03:02:58;;;;;;;;;;;15.40;99.90;;;;;;5053712;28;19920;-66
2021/08/24 03:05:24;;;;;;;;;;;15.30;99.90;;;;;;5052258;28;20113;-64
2021/08/24 03:07:49;;;;;;;;;;;15.30;99.90;;;;;;5052058;28;20285;-66
2021/08/24 03:10:17;;;;;;;;;;;15.30;99.90;;;;;;5053595;28;20038;-66
2021/08/24 03:12:45;;;;;;;;;;;15.30;99.90;;;;;;5053454;28;19911;-66
2021/08/24 03:15:15;;;;;;;;;;;15.30;99.90;;;;;;5053517;28;19904;-67
2021/08/24 03:17:44;;;;;;;;;;;15.30;99.90;;;;;;5053286;28;19919;-66
2021/08/24 03:20:10;;;;;;;;;;;15.20;99.90;;;;;;5053348;28;19908;-66
2021/08/24 03:22:37;;;;;;;;;;;15.20;99.90;;;;;;5053493;28;19995;-66
2021/08/24 03:25:03;;;;;;;;;;;15.20;99.90;;;;;;5053221;28;19911;-66
2021/08/24 03:27:32;;;;;;;;;;;15.20;99.90;;;;;;5052935;28;19915;-66
2021/08/24 03:29:58;;;;;;;;;;;15.10;99.90;;;;;;5053326;28;19958;-66
2021/08/24 03:32:24;;;;;;;;;;;15.10;99.90;;;;;;5053014;28;19935;-66
2021/08/24 03:34:50;;;;;;;;;;;15.10;99.90;;;;;;5053166;28;19924;-66
2021/08/24 03:37:15;;;;;;;;;;;15.00;99.90;;;;;;5052844;28;20059;-66
2021/08/24 03:39:41;;;;;;;;;;;15.00;99.90;;;;;;5052852;28;19905;-66
2021/08/24 03:42:06;;;;;;;;;;;15.00;99.90;;;;;;5051440;28;20279;-66
2021/08/24 03:44:32;;;;;;;;;;;14.90;99.90;;;;;;5053142;28;19905;-66
2021/08/24 03:46:57;;;;;;;;;;;14.80;99.90;;;;;;5052808;28;19905;-66
2021/08/24 03:49:23;;;;;;;;;;;14.90;99.90;;;;;;5052808;28;19905;-66
2021/08/24 03:51:48;;;;;;;;;;;14.90;99.90;;;;;;5053432;28;19905;-67
2021/08/24 03:54:14;;;;;;;;;;;14.90;99.90;;;;;;5052856;28;19905;-66
2021/08/24 03:56:40;;;;;;;;;;;14.90;99.90;;;;;;5052196;28;20253;-65
2021/08/24 03:59:05;;;;;;;;;;;14.90;99.90;;;;;;5052728;28;19934;-65
2021/08/24 04:01:31;;;;;;;;;;;14.90;99.90;;;;;;5052713;28;19959;-65
2021/08/24 04:03:57;;;;;;;;;;;14.80;99.90;;;;;;5052672;28;19912;-65
2021/08/24 04:06:22;;;;;;;;;;;14.80;99.90;;;;;;5052561;28;19995;-65
2021/08/24 04:08:48;;;;;;;;;;;14.80;99.90;;;;;;5052564;28;20254;-66
2021/08/24 04:11:13;;;;;;;;;;;14.70;99.90;;;;;;5053812;28;19904;-66
2021/08/24 04:13:39;;;;;;;;;;;14.70;99.90;;;;;;5056711;28;19927;-66
2021/08/24 04:16:08;;;;;;;;;;;14.70;99.90;;;;;;5056715;28;20005;-66
2021/08/24 04:18:34;;;;;;;;;;;14.70;99.90;;;;;;5056686;28;19965;-66
2021/08/24 04:21:00;;;;;;;;;;;14.60;99.90;;;;;;5056572;28;19938;-67
2021/08/24 04:23:26;;;;;;;;;;;14.60;99.90;;;;;;5056785;28;20276;-66
2021/08/24 04:25:51;;;;;;;;;;;14.60;99.90;;;;;;5055047;28;19905;-66
2021/08/24 04:28:17;;;;;;;;;;;14.50;99.90;;;;;;5056422;28;19996;-66
2021/08/24 04:30:42;;;;;;;;;;;14.50;99.90;;;;;;5056638;28;19911;-66
2021/08/24 04:33:08;;;;;;;;;;;14.50;99.90;;;;;;5056350;28;20333;-66
2021/08/24 04:35:33;;;;;;;;;;;14.50;99.90;;;;;;5056468;28;19951;-67
2021/08/24 04:37:59;;;;;;;;;;;14.50;99.90;;;;;;5056353;28;19912;-66
2021/08/24 04:40:27;;;;;;;;;;;14.50;99.90;;;;;;5056471;28;20301;-65
2021/08/24 04:42:53;;;;;;;;;;;14.40;99.90;;;;;;5056358;28;20408;-66
2021/08/24 04:45:19;;;;;;;;;;;14.30;99.90;;;;;;5056505;28;19951;-66
2021/08/24 04:47:44;;;;;;;;;;;14.30;99.90;;;;;;5056378;28;20284;-66
2021/08/24 04:50:10;;;;;;;;;;;14.30;99.90;;;;;;5056114;28;19905;-66
2021/08/24 04:52:36;;;;;;;;;;;14.30;99.90;;;;;;5056816;28;19908;-66
2021/08/24 04:55:02;;;;;;;;;;;14.20;99.90;;;;;;5056311;28;20004;-66
2021/08/24 04:57:27;;;;;;;;;;;14.20;99.90;;;;;;5056272;28;19952;-66
2021/08/24 04:59:53;;;;;;;;;;;14.30;99.90;;;;;;5057067;28;19955;-66
2021/08/24 05:02:20;;;;;;;;;;;14.30;99.90;;;;;;5056744;28;20349;-67
2021/08/24 05:04:46;;;;;;;;;;;14.30;99.90;;;;;;5056776;28;19991;-66
2021/08/24 05:07:11;;;;;;;;;;;14.40;99.90;;;;;;5057009;28;19959;-65
2021/08/24 05:09:37;;;;;;;;;;;14.40;99.90;;;;;;5057257;28;19904;-67
2021/08/24 05:12:03;;;;;;;;;;;14.30;99.90;;;;;;5060787;28;20341;-67
2021/08/24 05:14:29;;;;;;;;;;;14.30;99.90;;;;;;5057190;28;19904;-67
2021/08/24 05:16:58;;;;;;;;;;;14.30;99.90;;;;;;5056173;28;19916;-67
2021/08/24 05:19:24;;;;;;;;;;;14.20;99.90;;;;;;5056550;28;19909;-67
2021/08/24 05:21:50;;;;;;;;;;;14.20;99.90;;;;;;5055910;28;20419;-67
2021/08/24 05:24:15;;;;;;;;;;;14.30;99.90;;;;;;5054773;28;19987;-67
2021/08/24 05:26:41;;;;;;;;;;;14.20;99.90;;;;;;5055716;28;19905;-67
2021/08/24 05:29:07;;;;;;;;;;;14.20;99.90;;;;;;5055443;28;20292;-67
2021/08/24 05:31:32;;;;;;;;;;;14.30;99.90;;;;;;5054083;28;20017;-67
2021/08/24 05:33:58;;;;;;;;;;;14.20;99.90;;;;;;5055473;28;20009;-67
2021/08/24 05:36:23;;;;;;;;;;;14.30;99.90;;;;;;5055271;28;19904;-66
2021/08/24 05:38:49;;;;;;;;;;;14.30;99.90;;;;;;5055301;28;19912;-67
2021/08/24 05:41:15;;;;;;;;;;;14.30;99.90;;;;;;5055536;28;19954;-67
2021/08/24 05:43:40;;;;;;;;;;;14.30;99.90;;;;;;5054823;28;19908;-67
2021/08/24 05:46:11;;;;;;;;;;;14.30;99.90;;;;;;5055042;28;19908;-66
2021/08/24 05:48:37;;;;;;;;;;;14.30;99.90;;;;;;5054887;28;20379;-66
2021/08/24 05:51:12;;;;;;;;;;;14.30;99.90;;;;;;5055080;28;20003;-66
2021/08/24 05:53:38;;;;;;;;;;;14.30;99.90;;;;;;5054944;28;19908;-66
2021/08/24 05:56:07;;;;;;;;;;;14.20;99.90;;;;;;5054971;28;19905;-67
2021/08/24 05:58:33;;;;;;;;;;;14.30;99.90;;;;;;5053188;28;19951;-66
2021/08/24 06:00:58;;;;;;;;;;;14.40;99.90;;;;;;5052840;28;20277;-66
2021/08/24 06:03:24;;;;;;;;;;;14.40;99.90;;;;;;5054983;28;19908;-66
2021/08/24 06:05:49;;;;;;;;;;;14.40;99.90;;;;;;5053634;28;19984;-66
2021/08/24 06:08:15;;;;;;;;;;;14.40;99.90;;;;;;5054468;28;20396;-66
2021/08/24 06:10:40;;;;;;;;;;;14.50;99.90;;;;;;5054480;28;19952;-66
2021/08/24 06:13:07;;;;;;;;;;;14.60;99.90;;;;;;5054304;28;19905;-66
2021/08/24 06:15:33;;;;;;;;;;;14.60;99.90;;;;;;5054759;28;19909;-66
2021/08/24 06:17:58;;;;;;;;;;;14.70;99.90;;;;;;5054334;28;19919;-66
2021/08/24 06:20:24;;;;;;;;;;;14.80;99.90;;;;;;5054500;28;19947;-66
2021/08/24 06:22:49;;;;;;;;;;;14.80;99.90;;;;;;5052713;28;19912;-66
2021/08/24 06:25:15;;;;;;;;;;;14.90;99.90;;;;;;5054531;28;19908;-66
2021/08/24 06:27:41;;;;;;;;;;;15.00;99.90;;;;;;5053208;28;20298;-65
2021/08/24 06:30:07;;;;;;;;;;;15.10;99.90;;;;;;5054450;28;20281;-65
2021/08/24 06:32:37;;;;;;;;;;;15.10;99.90;;;;;;5054531;28;20272;-66
2021/08/24 06:35:03;;;;;;;;;;;15.20;99.90;;;;;;5053587;28;20095;-65
2021/08/24 06:37:29;;;;;;;;;;;15.30;99.90;;;;;;5054343;28;19904;-66
2021/08/24 06:39:55;;;;;;;;;;;15.40;99.90;;;;;;5054006;28;20002;-66
2021/08/24 06:42:21;;;;;;;;;;;15.50;99.90;;;;;;5053883;28;19976;-66
2021/08/24 06:44:46;;;;;;;;;;;15.60;99.90;;;;;;5053926;28;20047;-66
2021/08/24 06:47:12;;;;;;;;;;;15.60;99.90;;;;;;5053638;28;19967;-66
2021/08/24 06:49:37;;;;;;;;;;;15.70;99.90;;;;;;5053700;28;19920;-67
2021/08/24 06:52:05;;;;;;;;;;;15.80;99.90;;;;;;5054058;28;19904;-67
2021/08/24 06:54:31;;;;;;;;;;;15.80;99.90;;;;;;5052302;28;19909;-67
2021/08/24 06:56:57;;;;;;;;;;;15.90;99.90;;;;;;5053643;28;19904;-66
2021/08/24 06:59:23;;;;;;;;;;;16.00;99.90;;;;;;5053977;28;19911;-66
2021/08/24 07:01:49;;;;;;;;;;;16.00;99.90;;;;;;5053652;28;19920;-66
2021/08/24 07:04:14;;;;;;;;;;;16.10;99.90;;;;;;5054003;28;19904;-69
2021/08/24 07:06:40;;;;;;;;;;;16.10;99.90;;;;;;5053947;28;19904;-68
2021/08/24 07:09:05;;;;;;;;;;;16.20;99.90;;;;;;5053410;28;19901;-68
2021/08/24 07:11:31;;;;;;;;;;;16.40;99.90;;;;;;5053389;28;19991;-68
2021/08/24 07:13:57;;;;;;;;;;;16.50;99.90;;;;;;5053704;28;19912;-69
2021/08/24 07:16:23;;;;;;;;;;;16.60;99.90;;;;;;5053358;28;19904;-67
2021/08/24 07:18:50;;;;;;;;;;;16.70;99.90;;;;;;5053437;28;19931;-67
2021/08/24 07:21:16;;;;;;;;;;;16.70;99.90;;;;;;5053323;28;19904;-67
2021/08/24 07:23:42;;;;;;;;;;;16.90;99.90;;;;;;5053228;28;19920;-68
2021/08/24 07:26:08;;;;;;;;;;;16.90;99.90;;;;;;5051890;28;19917;-67
2021/08/24 07:28:33;;;;;;;;;;;17.00;99.90;;;;;;5053141;28;19912;-65
2021/08/24 07:30:59;;;;;;;;;;;17.00;99.90;;;;;;5052915;28;19936;-66
2021/08/24 07:33:24;;;;;;;;;;;17.00;99.90;;;;;;5053538;28;20429;-66
2021/08/24 07:35:50;;;;;;;;;;;17.10;99.90;;;;;;5053262;28;20403;-65
2021/08/24 07:38:16;;;;;;;;;;;17.10;99.90;;;;;;5052603;28;19916;-66
2021/08/24 07:40:42;;;;;;;;;;;17.20;99.90;;;;;;5052921;28;19999;-66
2021/08/24 07:43:08;;;;;;;;;;;17.20;99.90;;;;;;5052789;28;20028;-67
2021/08/24 07:45:33;;;;;;;;;;;17.30;99.90;;;;;;5052442;28;19904;-66
2021/08/24 07:47:59;;;;;;;;;;;17.40;99.90;;;;;;5052448;28;20319;-66
2021/08/24 07:50:25;;;;;;;;;;;17.50;99.90;;;;;;5052730;28;20012;-67
2021/08/24 07:52:51;;;;;;;;;;;17.50;99.90;;;;;;5052831;28;19991;-67
2021/08/24 07:55:17;;;;;;;;;;;17.40;99.90;;;;;;5052914;28;20015;-67
2021/08/24 07:57:42;;;;;;;;;;;17.30;99.90;;;;;;5052481;28;19948;-66
2021/08/24 08:00:08;;;;;;;;;;;17.40;99.90;;;;;;5052754;28;19999;-66
2021/08/24 08:02:34;;;;;;;;;;;17.30;99.90;;;;;;5052442;28;20033;-66
2021/08/24 08:04:59;;;;;;;;;;;17.30;99.90;;;;;;5052340;28;19909;-66
2021/08/24 08:07:25;;;;;;;;;;;17.30;99.90;;;;;;5052362;28;20364;-67
2021/08/24 08:09:50;;;;;;;;;;;17.50;99.90;;;;;;5052291;28;19908;-67
2021/08/24 08:12:16;;;;;;;;;;;17.60;99.90;;;;;;5052581;28;19904;-67
2021/08/24 08:14:42;;;;;;;;;;;17.80;99.90;;;;;;5050933;28;19905;-67
2021/08/24 08:17:10;;;;;;;;;;;17.90;99.90;;;;;;5053294;28;20334;-66
2021/08/24 08:19:36;;;;;;;;;;;17.90;99.90;;;;;;5052294;28;19995;-66
2021/08/24 08:22:01;;;;;;;;;;;17.90;99.90;;;;;;5052608;28;20322;-66
2021/08/24 08:24:27;;;;;;;;;;;17.90;99.90;;;;;;5050933;28;19912;-66
2021/08/24 08:26:52;;;;;;;;;;;18.00;99.90;;;;;;5052388;28;19923;-66
2021/08/24 08:29:18;;;;;;;;;;;18.10;99.90;;;;;;5052355;28;19996;-66
2021/08/24 08:31:45;;;;;;;;;;;18.20;99.90;;;;;;5052378;28;20219;-66
2021/08/24 08:34:11;;;;;;;;;;;18.10;99.90;;;;;;5052501;28;20003;-67
2021/08/24 08:36:37;;;;;;;;;;;18.30;99.90;;;;;;5052446;28;20045;-68
2021/08/24 08:39:02;;;;;;;;;;;19.20;99.90;;;;;;5052114;28;19912;-66
2021/08/24 08:41:31;;;;;;;;;;;21.30;99.90;;;;;;5052103;28;19904;-68
2021/08/24 08:44:00;;;;;;;;;;;23.50;98.30;;;;;;5052071;28;20317;-66
2021/08/24 08:46:25;;;;;;;;;;;24.70;95.40;;;;;;5052229;28;19908;-66
2021/08/24 08:48:53;;;;;;;;;;;25.40;93.90;;;;;;5052265;28;19905;-66
2021/08/24 08:51:22;;;;;;;;;;;26.60;92.60;;;;;;5052000;28;20293;-67
2021/08/24 08:53:55;;;;;;;;;;;26.50;90.90;;;;;;5052164;28;19905;-67
2021/08/24 08:56:24;;;;;;;;;;;26.40;91.00;;;;;;5052380;28;19970;-67
2021/08/24 08:58:49;;;;;;;;;;;26.80;89.10;;;;;;5052914;28;19963;-67
2021/08/24 09:01:15;;;;;;;;;;;27.10;89.10;;;;;;5055974;28;19908;-67
2021/08/24 09:03:44;;;;;;;;;;;28.70;85.20;;;;;;5054519;28;19913;-67
2021/08/24 09:06:11;;;;;;;;;;;29.00;81.80;;;;;;5055715;28;19916;-67
2021/08/24 09:08:38;;;;;;;;;;;27.20;84.60;;;;;;5055564;28;19954;-66
2021/08/24 09:11:06;;;;;;;;;;;26.50;86.50;;;;;;5055666;28;19911;-66
2021/08/24 09:13:37;;;;;;;;;;;25.90;87.70;;;;;;5056047;28;19905;-66
2021/08/24 09:16:17;;;;;;;;;;;25.70;88.50;;;;;;5054095;28;19954;-67
2021/08/24 09:19:09;;;;;;;;;;;27.20;86.20;;;;;;5055459;28;19913;-68
2021/08/24 09:21:37;;;;;;;;;;;28.40;82.80;;;;;;5051670;28;19996;-67
2021/08/24 09:24:07;;;;;;;;;;;26.80;84.20;;;;;;5054221;28;19909;-66
2021/08/24 09:26:37;;;;;;;;;;;25.40;86.90;;;;;;5054150;28;19904;-67
2021/08/24 09:29:04;;;;;;;;;;;24.30;89.10;;;;;;5054683;28;19912;-68
2021/08/24 09:31:29;;;;;;;;;;;25.00;88.40;;;;;;5053994;28;19909;-68
2021/08/24 09:33:55;;;;;;;;;;;26.20;85.70;;;;;;5055206;28;20042;-68
2021/08/24 09:36:21;;;;;;;;;;;27.60;81.80;;;;;;5055787;28;20346;-69
2021/08/24 09:38:55;;;;;;;;;;;27.90;80.80;;;;;;5055078;28;19905;-69
2021/08/24 09:41:24;;;;;;;;;;;27.70;80.70;;;;;;5055987;28;19905;-68
2021/08/24 09:43:50;;;;;;;;;;;27.60;79.90;;;;;;5055417;28;20419;-67
2021/08/24 09:46:15;;;;;;;;;;;26.70;80.40;;;;;;5055388;28;19918;-68
2021/08/24 09:49:03;;;;;;;;;;;26.20;82.50;;;;;;5055252;28;19904;-68
2021/08/24 09:51:38;;;;;;;;;;;26.50;81.60;;;;;;5055226;28;19944;-68
2021/08/24 09:54:12;;;;;;;;;;;28.00;79.40;;;;;;5054688;28;19905;-68
2021/08/24 09:56:41;;;;;;;;;;;28.90;77.50;;;;;;5054729;28;19908;-67
2021/08/24 09:59:06;;;;;;;;;;;28.50;77.60;;;;;;5053310;28;20003;-67
2021/08/24 10:01:50;;;;;;;;;;;28.40;76.60;;;;;;5053643;28;19947;-67
2021/08/24 10:04:16;;;;;;;;;;;26.90;79.00;;;;;;5054567;28;19934;-68
2021/08/24 10:07:02;;;;;;;;;;;25.80;82.80;;;;;;5054425;28;19911;-67
2021/08/24 10:09:34;;;;;;;;;;;25.60;82.20;;;;;;5053844;28;19912;-67
2021/08/24 10:12:19;;;;;;;;;;;25.40;83.10;;;;;;5053952;28;19987;-67
2021/08/24 10:14:45;;;;;;;;;;;26.20;82.20;;;;;;5054262;28;20370;-68
2021/08/24 10:17:13;;;;;;;;;;;25.00;84.10;;;;;;5054257;28;19943;-67
2021/08/24 10:19:41;;;;;;;;;;;24.40;85.90;;;;;;5052897;28;19905;-67
2021/08/24 10:22:09;;;;;;;;;;;24.90;86.40;;;;;;5054232;28;19905;-67
2021/08/24 10:24:37;;;;;;;;;;;24.90;85.40;;;;;;5054412;28;19912;-68
2021/08/24 10:27:04;;;;;;;;;;;24.30;86.80;;;;;;5054147;28;19951;-67
2021/08/24 10:29:31;;;;;;;;;;;23.60;88.50;;;;;;5054099;28;19904;-67
2021/08/24 10:32:10;;;;;;;;;;;23.10;90.20;;;;;;5054073;28;19912;-68
2021/08/24 10:34:41;;;;;;;;;;;22.70;90.70;;;;;;5054429;28;19929;-67
2021/08/24 10:37:25;;;;;;;;;;;22.00;92.20;;;;;;5052396;28;20013;-67
2021/08/24 10:39:52;;;;;;;;;;;21.40;92.80;;;;;;5053929;28;20357;-67
2021/08/24 10:42:26;;;;;;;;;;;20.80;94.00;;;;;;5053860;28;19909;-67
2021/08/24 10:44:53;;;;;;;;;;;20.50;94.40;;;;;;5053981;28;20277;-67
2021/08/24 10:47:29;;;;;;;;;;;20.30;95.20;;;;;;5053447;28;20415;-67
2021/08/24 10:49:56;;;;;;;;;;;20.40;95.50;;;;;;5052387;28;19968;-67
2021/08/24 10:52:57;;;;;;;;;;;20.30;95.60;;;;;;5053513;28;19905;-67
2021/08/24 10:55:26;;;;;;;;;;;20.40;95.90;;;;;;5031737;28;19905;-66
2021/08/24 10:58:13;;;;;;;;;;;20.20;96.20;;;;;;5049503;28;20003;-66
2021/08/24 11:00:47;;;;;;;;;;;20.10;96.90;;;;;;5053514;28;19911;-66
2021/08/24 11:03:16;;;;;;;;;;;20.10;97.20;;;;;;5053869;28;20380;-66
2021/08/24 11:06:00;;;;;;;;;;;20.00;97.70;;;;;;5052248;28;19954;-68
2021/08/24 11:08:55;;;;;;;;;;;19.90;97.90;;;;;;5053409;28;19908;-66
2021/08/24 11:11:23;;;;;;;;;;;19.90;98.00;;;;;;5033878;28;19917;-66
2021/08/24 11:13:51;;;;;;;;;;;19.80;98.50;;;;;;5053225;28;19907;-67
2021/08/24 11:16:40;;;;;;;;;;;19.70;98.80;;;;;;5053649;28;19909;-67
2021/08/24 11:19:20;;;;;;;;;;;19.60;99.30;;;;;;5052765;28;20027;-67
2021/08/24 11:21:48;;;;;;;;;;;19.80;99.50;;;;;;5052886;28;20266;-66
2021/08/24 11:24:32;;;;;;;;;;;20.10;99.30;;;;;;5053376;28;20400;-68
2021/08/24 11:27:16;;;;;;;;;;;20.10;99.20;;;;;;5052088;28;19904;-68
2021/08/24 11:29:44;;;;;;;;;;;20.30;99.10;;;;;;5053295;28;20292;-67
2021/08/24 11:32:16;;;;;;;;;;;20.20;99.20;;;;;;5053141;28;19920;-67
2021/08/24 11:34:55;;;;;;;;;;;20.20;99.50;;;;;;5052985;28;20302;-67
2021/08/24 11:37:22;;;;;;;;;;;20.30;99.20;;;;;;5053122;28;19905;-67
2021/08/24 11:39:52;;;;;;;;;;;20.30;99.20;;;;;;5051357;28;19912;-67
2021/08/24 11:42:25;;;;;;;;;;;20.30;99.30;;;;;;5052676;28;20003;-67
2021/08/24 11:44:54;;;;;;;;;;;20.30;99.40;;;;;;5052637;28;19963;-67
2021/08/24 11:47:49;;;;;;;;;;;20.20;99.60;;;;;;5052759;28;20012;-68
2021/08/24 11:50:18;;;;;;;;;;;20.20;99.80;;;;;;5047589;28;20003;-67
2021/08/24 11:52:48;;;;;;;;;;;20.10;99.60;;;;;;5052808;28;19930;-67
2021/08/24 11:55:16;;;;;;;;;;;20.00;99.90;;;;;;5052905;28;19958;-67
2021/08/24 11:57:54;;;;;;;;;;;20.10;99.90;;;;;;5052360;28;19905;-67
2021/08/24 12:00:20;;;;;;;;;;;20.10;99.90;;;;;;5052348;28;19936;-67
2021/08/24 12:02:48;;;;;;;;;;;19.90;99.90;;;;;;5052347;28;19952;-67
2021/08/24 12:05:20;;;;;;;;;;;19.80;99.90;;;;;;5052351;28;19911;-67
2021/08/24 12:07:51;;;;;;;;;;;19.80;99.90;;;;;;5052397;28;19909;-67
2021/08/24 12:10:29;;;;;;;;;;;19.80;99.90;;;;;;5052643;28;20419;-67
2021/08/24 12:12:57;;;;;;;;;;;19.90;99.90;;;;;;5052789;28;20000;-66
2021/08/24 12:15:32;;;;;;;;;;;19.80;99.90;;;;;;5052375;28;20281;-66
2021/08/24 12:18:06;;;;;;;;;;;19.90;99.90;;;;;;5052161;28;19947;-67
2021/08/24 12:20:31;;;;;;;;;;;19.90;99.90;;;;;;5052182;28;19926;-67
2021/08/24 12:22:59;;;;;;;;;;;20.00;99.90;;;;;;5052366;28;20349;-67
2021/08/24 12:25:30;;;;;;;;;;;20.10;99.90;;;;;;5050842;28;19905;-67
2021/08/24 12:27:58;;;;;;;;;;;20.10;99.90;;;;;;5052152;28;19908;-67
2021/08/24 12:30:28;;;;;;;;;;;20.20;99.90;;;;;;5052107;28;19905;-67
2021/08/24 12:32:54;;;;;;;;;;;20.20;99.90;;;;;;5055029;28;19966;-67
2021/08/24 12:35:41;;;;;;;;;;;20.10;99.90;;;;;;5056700;28;20369;-67
2021/08/24 12:38:30;;;;;;;;;;;19.90;99.90;;;;;;5056114;28;19978;-67
2021/08/24 12:40:56;;;;;;;;;;;19.90;99.90;;;;;;5055831;28;19924;-66
2021/08/24 12:43:26;;;;;;;;;;;19.90;99.90;;;;;;5054678;28;19932;-66
2021/08/24 12:46:15;;;;;;;;;;;20.00;99.90;;;;;;5056697;28;20277;-68
2021/08/24 12:49:00;;;;;;;;;;;20.10;99.90;;;;;;5054853;28;20411;-67
2021/08/24 12:51:30;;;;;;;;;;;20.00;99.90;;;;;;5056110;28;19999;-68
2021/08/24 12:54:01;;;;;;;;;;;19.90;99.90;;;;;;5056370;28;19909;-67
2021/08/24 12:56:38;;;;;;;;;;;19.90;99.90;;;;;;5056149;28;19905;-67
2021/08/24 12:59:04;;;;;;;;;;;19.80;99.90;;;;;;5054433;28;20357;-67
2021/08/24 13:01:30;;;;;;;;;;;19.60;99.90;;;;;;5054289;28;19916;-67
2021/08/24 13:03:59;;;;;;;;;;;19.60;99.90;;;;;;5056038;28;19912;-67
2021/08/24 13:06:26;;;;;;;;;;;19.60;99.90;;;;;;5055702;28;19953;-67
2021/08/24 13:08:53;;;;;;;;;;;19.70;99.90;;;;;;5053968;28;19955;-66
2021/08/24 13:11:27;;;;;;;;;;;19.80;99.90;;;;;;5055820;28;20280;-67
2021/08/24 13:14:01;;;;;;;;;;;19.80;99.90;;;;;;5055455;28;19904;-67
2021/08/24 13:16:32;;;;;;;;;;;19.90;99.90;;;;;;5055754;28;19904;-66
2021/08/24 13:18:58;;;;;;;;;;;19.70;99.90;;;;;;5055570;28;20379;-67
2021/08/24 13:21:24;;;;;;;;;;;19.80;99.90;;;;;;5055642;28;19955;-67
2021/08/24 13:23:52;;;;;;;;;;;19.60;99.90;;;;;;5055569;28;19913;-66
2021/08/24 13:26:22;;;;;;;;;;;19.50;99.90;;;;;;5055665;28;19912;-67
2021/08/24 13:28:49;;;;;;;;;;;19.50;99.90;;;;;;5055512;28;19905;-67
2021/08/24 13:31:17;;;;;;;;;;;19.40;99.90;;;;;;5055382;28;19977;-66
2021/08/24 13:33:52;;;;;;;;;;;19.50;99.90;;;;;;5054015;28;19977;-67
2021/08/24 13:36:37;;;;;;;;;;;19.70;99.90;;;;;;5055300;28;19912;-66
2021/08/24 13:39:04;;;;;;;;;;;19.70;99.90;;;;;;5055434;28;19912;-67
2021/08/24 13:41:38;;;;;;;;;;;19.70;99.90;;;;;;5055280;28;19905;-67
2021/08/24 13:44:10;;;;;;;;;;;19.70;99.90;;;;;;5053073;28;20284;-67
2021/08/24 13:46:37;;;;;;;;;;;19.60;99.90;;;;;;5054932;28;19953;-68
2021/08/24 13:49:08;;;;;;;;;;;19.50;99.90;;;;;;5054793;28;19991;-66
2021/08/24 13:51:47;;;;;;;;;;;19.60;99.90;;;;;;5054975;28;20376;-66
2021/08/24 13:54:14;;;;;;;;;;;19.60;99.90;;;;;;5054649;28;19905;-65
2021/08/24 13:56:40;;;;;;;;;;;19.60;99.90;;;;;;5054520;28;19905;-67
2021/08/24 13:59:07;;;;;;;;;;;19.60;99.90;;;;;;5054922;28;20023;-66
2021/08/24 14:01:35;;;;;;;;;;;19.60;99.90;;;;;;5054930;28;20242;-67
2021/08/24 14:04:07;;;;;;;;;;;19.50;99.90;;;;;;5053197;28;20337;-66
2021/08/24 14:06:34;;;;;;;;;;;19.50;99.90;;;;;;5054375;28;19911;-66
2021/08/24 14:09:08;;;;;;;;;;;19.40;99.90;;;;;;5054701;28;19967;-66
2021/08/24 14:11:34;;;;;;;;;;;19.40;99.90;;;;;;5054480;28;19915;-68
2021/08/24 14:14:00;;;;;;;;;;;19.40;99.90;;;;;;5055291;28;19908;-67
2021/08/24 14:16:31;;;;;;;;;;;19.40;99.90;;;;;;5054638;28;20399;-67
2021/08/24 14:18:58;;;;;;;;;;;19.40;99.90;;;;;;5055201;28;19935;-65
2021/08/24 14:21:26;;;;;;;;;;;19.40;99.90;;;;;;5054451;28;19953;-65
2021/08/24 14:24:03;;;;;;;;;;;19.50;99.90;;;;;;5054350;28;19909;-64
2021/08/24 14:26:31;;;;;;;;;;;19.60;99.90;;;;;;5052900;28;19966;-65